sensor_id;sensor_type;location;lat;lon;timestamp;pressure;altitude;pressure_sealevel;temperature;humidity
8758;BME280;4415;42.152;24.744;2022-07-18T00:00:36;100024.16;;;24.39;nan
8758;BME280;4415;42.152;24.744;2022-07-18T00:03:01;100008.25;;;24.33;nan
8758;BME280;4415;42.152;24.744;2022-07-18T00:05:27;100000.19;;;24.21;nan
8758;BME280;4415;42.152;24.744;2022-07-18T00:07:52;100002.63;;;24.26;nan
8758;BME280;4415;42.152;24.744;2022-07-18T00:10:17;100014.28;;;24.16;nan
8758;BME280;4415;42.152;24.744;2022-07-18T00:12:43;100014.88;;;24.05;nan
8758;BME280;4415;42.152;24.744;2022-07-18T00:15:09;100010.63;;;23.89;nan
8758;BME280;4415;42.152;24.744;2022-07-18T00:17:36;99981.56;;;23.95;nan
8758;BME280;4415;42.152;24.744;2022-07-18T00:20:03;100034.38;;;23.93;nan
8758;BME280;4415;42.152;24.744;2022-07-18T00:22:28;100036.69;;;23.91;nan
8758;BME280;4415;42.152;24.744;2022-07-18T00:24:54;100005.72;;;23.79;nan
8758;BME280;4415;42.152;24.744;2022-07-18T00:27:19;100024.06;;;23.90;nan
8758;BME280;4415;42.152;24.744;2022-07-18T00:29:44;100032.59;;;23.82;nan
8758;BME280;4415;42.152;24.744;2022-07-18T00:34:35;100017.69;;;23.86;nan
8758;BME280;4415;42.152;24.744;2022-07-18T00:37:01;100030.97;;;23.81;nan
8758;BME280;4415;42.152;24.744;2022-07-18T00:39:27;100030.97;;;23.81;nan
8758;BME280;4415;42.152;24.744;2022-07-18T00:41:53;100027.72;;;23.75;nan
8758;BME280;4415;42.152;24.744;2022-07-18T00:44:19;100024.44;;;23.70;nan
8758;BME280;4415;42.152;24.744;2022-07-18T00:46:45;100012.34;;;23.55;nan
8758;BME280;4415;42.152;24.744;2022-07-18T00:49:11;100030.88;;;23.55;nan
8758;BME280;4415;42.152;24.744;2022-07-18T00:51:37;100001.75;;;23.38;nan
8758;BME280;4415;42.152;24.744;2022-07-18T00:54:04;100029.84;;;23.43;nan
8758;BME280;4415;42.152;24.744;2022-07-18T00:56:30;100021.22;;;23.29;nan
8758;BME280;4415;42.152;24.744;2022-07-18T00:58:55;100009.97;;;23.19;nan
8758;BME280;4415;42.152;24.744;2022-07-18T01:01:21;99986.75;;;23.01;nan
8758;BME280;4415;42.152;24.744;2022-07-18T01:04:05;100032.25;;;23.29;nan
8758;BME280;4415;42.152;24.744;2022-07-18T01:06:30;100032.94;;;23.23;nan
8758;BME280;4415;42.152;24.744;2022-07-18T01:08:56;100036.75;;;23.18;nan
8758;BME280;4415;42.152;24.744;2022-07-18T01:11:22;100033.47;;;23.13;nan
8758;BME280;4415;42.152;24.744;2022-07-18T01:13:48;100032.69;;;23.12;nan
8758;BME280;4415;42.152;24.744;2022-07-18T01:16:15;100024.38;;;22.93;nan
8758;BME280;4415;42.152;24.744;2022-07-18T01:18:46;100041.78;;;22.97;nan
8758;BME280;4415;42.152;24.744;2022-07-18T01:21:12;100045.63;;;22.92;nan
8758;BME280;4415;42.152;24.744;2022-07-18T01:23:37;100041.72;;;22.93;nan
8758;BME280;4415;42.152;24.744;2022-07-18T01:26:03;100044.75;;;22.88;nan
8758;BME280;4415;42.152;24.744;2022-07-18T01:28:29;100049.53;;;22.91;nan
8758;BME280;4415;42.152;24.744;2022-07-18T01:30:54;100041.53;;;22.86;nan
8758;BME280;4415;42.152;24.744;2022-07-18T01:33:20;100049.38;;;22.84;nan
8758;BME280;4415;42.152;24.744;2022-07-18T01:35:45;100046.91;;;22.79;nan
8758;BME280;4415;42.152;24.744;2022-07-18T01:38:10;100056.25;;;22.75;nan
8758;BME280;4415;42.152;24.744;2022-07-18T01:40:36;100055.44;;;22.74;nan
8758;BME280;4415;42.152;24.744;2022-07-18T01:43:01;100052.88;;;22.66;nan
8758;BME280;4415;42.152;24.744;2022-07-18T01:47:52;100026.19;;;22.39;nan
8758;BME280;4415;42.152;24.744;2022-07-18T01:50:18;100039.97;;;22.54;nan
8758;BME280;4415;42.152;24.744;2022-07-18T01:52:43;100058.72;;;22.49;nan
8758;BME280;4415;42.152;24.744;2022-07-18T01:55:09;100049.94;;;22.43;nan
8758;BME280;4415;42.152;24.744;2022-07-18T01:57:36;100049.75;;;22.36;nan
8758;BME280;4415;42.152;24.744;2022-07-18T02:00:03;100061.66;;;22.40;nan
8758;BME280;4415;42.152;24.744;2022-07-18T02:02:29;100042.81;;;22.42;nan
8758;BME280;4415;42.152;24.744;2022-07-18T02:04:54;100049.03;;;22.39;nan
8758;BME280;4415;42.152;24.744;2022-07-18T02:07:32;100057.56;;;22.34;nan
8758;BME280;4415;42.152;24.744;2022-07-18T02:09:58;100054.16;;;22.25;nan
8758;BME280;4415;42.152;24.744;2022-07-18T02:12:24;100050.91;;;22.19;nan
8758;BME280;4415;42.152;24.744;2022-07-18T02:14:50;100049.03;;;22.23;nan
8758;BME280;4415;42.152;24.744;2022-07-18T02:17:16;100040.50;;;22.13;nan
8758;BME280;4415;42.152;24.744;2022-07-18T02:19:42;100066.63;;;22.19;nan
8758;BME280;4415;42.152;24.744;2022-07-18T02:22:08;100066.41;;;22.12;nan
8758;BME280;4415;42.152;24.744;2022-07-18T02:24:33;100026.09;;;22.04;nan
8758;BME280;4415;42.152;24.744;2022-07-18T02:26:58;100047.75;;;21.90;nan
8758;BME280;4415;42.152;24.744;2022-07-18T02:29:25;100053.16;;;21.86;nan
8758;BME280;4415;42.152;24.744;2022-07-18T02:31:51;100056.00;;;21.77;nan
8758;BME280;4415;42.152;24.744;2022-07-18T02:36:42;100076.63;;;21.84;nan
8758;BME280;4415;42.152;24.744;2022-07-18T02:39:08;100065.22;;;21.69;nan
8758;BME280;4415;42.152;24.744;2022-07-18T02:41:34;100062.03;;;21.67;nan
8758;BME280;4415;42.152;24.744;2022-07-18T02:44:00;100060.41;;;21.66;nan
8758;BME280;4415;42.152;24.744;2022-07-18T02:46:26;100088.13;;;21.73;nan
8758;BME280;4415;42.152;24.744;2022-07-18T02:48:52;100092.03;;;21.72;nan
8758;BME280;4415;42.152;24.744;2022-07-18T02:51:17;100095.72;;;21.64;nan
8758;BME280;4415;42.152;24.744;2022-07-18T02:53:43;100082.22;;;21.59;nan
8758;BME280;4415;42.152;24.744;2022-07-18T02:56:08;100089.59;;;21.55;nan
8758;BME280;4415;42.152;24.744;2022-07-18T02:58:34;100096.41;;;21.61;nan
8758;BME280;4415;42.152;24.744;2022-07-18T03:00:59;100073.31;;;21.50;nan
8758;BME280;4415;42.152;24.744;2022-07-18T03:03:25;100180.06;;;21.60;nan
8758;BME280;4415;42.152;24.744;2022-07-18T03:05:50;100083.91;;;21.64;nan
8758;BME280;4415;42.152;24.744;2022-07-18T03:08:16;100100.53;;;21.67;nan
8758;BME280;4415;42.152;24.744;2022-07-18T03:10:41;100093.63;;;21.73;nan
8758;BME280;4415;42.152;24.744;2022-07-18T03:13:07;100084.84;;;21.68;nan
8758;BME280;4415;42.152;24.744;2022-07-18T03:15:32;100010.31;;;21.73;nan
8758;BME280;4415;42.152;24.744;2022-07-18T03:17:58;100079.53;;;21.75;nan
8758;BME280;4415;42.152;24.744;2022-07-18T03:20:23;100086.97;;;21.87;nan
8758;BME280;4415;42.152;24.744;2022-07-18T03:22:48;100071.94;;;21.84;nan
8758;BME280;4415;42.152;24.744;2022-07-18T03:25:14;100079.56;;;22.03;nan
8758;BME280;4415;42.152;24.744;2022-07-18T03:27:39;100057.31;;;21.96;nan
8758;BME280;4415;42.152;24.744;2022-07-18T03:30:05;100083.47;;;22.33;nan
8758;BME280;4415;42.152;24.744;2022-07-18T03:32:31;100093.56;;;22.88;nan
8758;BME280;4415;42.152;24.744;2022-07-18T03:34:56;100135.38;;;23.25;nan
8758;BME280;4415;42.152;24.744;2022-07-18T03:37:21;100095.47;;;24.11;nan
8758;BME280;4415;42.152;24.744;2022-07-18T03:39:47;100086.00;;;25.03;nan
8758;BME280;4415;42.152;24.744;2022-07-18T03:42:12;100082.41;;;25.88;nan
8758;BME280;4415;42.152;24.744;2022-07-18T03:44:38;100091.09;;;26.64;nan
8758;BME280;4415;42.152;24.744;2022-07-18T03:47:03;100094.72;;;27.22;nan
8758;BME280;4415;42.152;24.744;2022-07-18T03:49:29;100083.66;;;28.05;nan
8758;BME280;4415;42.152;24.744;2022-07-18T03:51:54;100078.53;;;28.49;nan
8758;BME280;4415;42.152;24.744;2022-07-18T03:54:23;100088.13;;;28.66;nan
8758;BME280;4415;42.152;24.744;2022-07-18T03:56:49;100091.25;;;29.24;nan
8758;BME280;4415;42.152;24.744;2022-07-18T03:59:15;100102.22;;;29.70;nan
8758;BME280;4415;42.152;24.744;2022-07-18T04:01:40;100114.94;;;29.85;nan
8758;BME280;4415;42.152;24.744;2022-07-18T04:04:06;100102.00;;;30.23;nan
8758;BME280;4415;42.152;24.744;2022-07-18T04:06:31;100106.69;;;30.37;nan
8758;BME280;4415;42.152;24.744;2022-07-18T04:08:57;100100.69;;;30.93;nan
8758;BME280;4415;42.152;24.744;2022-07-18T04:11:22;100094.53;;;30.68;nan
8758;BME280;4415;42.152;24.744;2022-07-18T04:13:50;100092.47;;;30.76;nan
8758;BME280;4415;42.152;24.744;2022-07-18T04:16:16;100086.34;;;30.95;nan
8758;BME280;4415;42.152;24.744;2022-07-18T04:18:41;100095.28;;;31.54;nan
8758;BME280;4415;42.152;24.744;2022-07-18T04:21:07;100097.13;;;31.30;nan
8758;BME280;4415;42.152;24.744;2022-07-18T04:23:32;100097.28;;;31.87;nan
8758;BME280;4415;42.152;24.744;2022-07-18T04:25:58;100099.50;;;31.99;nan
8758;BME280;4415;42.152;24.744;2022-07-18T04:28:23;100098.94;;;31.81;nan
8758;BME280;4415;42.152;24.744;2022-07-18T04:30:50;100103.09;;;31.69;nan
8758;BME280;4415;42.152;24.744;2022-07-18T04:33:16;100100.31;;;32.00;nan
8758;BME280;4415;42.152;24.744;2022-07-18T04:35:41;100107.88;;;32.29;nan
8758;BME280;4415;42.152;24.744;2022-07-18T04:38:09;100100.84;;;32.71;nan
8758;BME280;4415;42.152;24.744;2022-07-18T04:40:35;100112.63;;;32.32;nan
8758;BME280;4415;42.152;24.744;2022-07-18T04:43:00;100130.03;;;32.97;nan
8758;BME280;4415;42.152;24.744;2022-07-18T04:45:26;100106.38;;;33.64;nan
8758;BME280;4415;42.152;24.744;2022-07-18T04:47:53;100105.97;;;33.66;nan
8758;BME280;4415;42.152;24.744;2022-07-18T04:50:19;100116.38;;;35.21;nan
8758;BME280;4415;42.152;24.744;2022-07-18T04:52:46;100116.00;;;35.03;nan
8758;BME280;4415;42.152;24.744;2022-07-18T04:55:13;100127.22;;;35.35;nan
8758;BME280;4415;42.152;24.744;2022-07-18T04:57:39;100119.56;;;35.07;nan
8758;BME280;4415;42.152;24.744;2022-07-18T05:00:14;100139.47;;;34.80;nan
8758;BME280;4415;42.152;24.744;2022-07-18T05:02:45;100136.38;;;35.23;nan
8758;BME280;4415;42.152;24.744;2022-07-18T05:05:13;100138.47;;;35.03;nan
8758;BME280;4415;42.152;24.744;2022-07-18T05:07:40;100146.34;;;34.43;nan
8758;BME280;4415;42.152;24.744;2022-07-18T05:10:07;100150.00;;;36.11;nan
8758;BME280;4415;42.152;24.744;2022-07-18T05:12:34;100146.84;;;36.09;nan
8758;BME280;4415;42.152;24.744;2022-07-18T05:15:00;100138.03;;;36.07;nan
8758;BME280;4415;42.152;24.744;2022-07-18T05:17:26;100154.31;;;35.99;nan
8758;BME280;4415;42.152;24.744;2022-07-18T05:19:51;100148.44;;;36.60;nan
8758;BME280;4415;42.152;24.744;2022-07-18T05:22:17;100147.31;;;36.95;nan
8758;BME280;4415;42.152;24.744;2022-07-18T05:24:42;100135.97;;;36.49;nan
8758;BME280;4415;42.152;24.744;2022-07-18T05:27:08;100130.63;;;36.13;nan
8758;BME280;4415;42.152;24.744;2022-07-18T05:29:33;100148.81;;;35.96;nan
8758;BME280;4415;42.152;24.744;2022-07-18T05:31:59;100152.59;;;35.76;nan
8758;BME280;4415;42.152;24.744;2022-07-18T05:34:24;100134.28;;;36.51;nan
8758;BME280;4415;42.152;24.744;2022-07-18T05:36:49;100139.44;;;36.40;nan
8758;BME280;4415;42.152;24.744;2022-07-18T05:39:15;100132.31;;;36.86;nan
8758;BME280;4415;42.152;24.744;2022-07-18T05:41:40;100159.78;;;37.76;nan
8758;BME280;4415;42.152;24.744;2022-07-18T05:44:06;100157.16;;;37.81;nan
8758;BME280;4415;42.152;24.744;2022-07-18T05:46:32;100148.41;;;37.11;nan
8758;BME280;4415;42.152;24.744;2022-07-18T05:48:57;100147.72;;;37.53;nan
8758;BME280;4415;42.152;24.744;2022-07-18T05:51:22;100133.41;;;37.48;nan
8758;BME280;4415;42.152;24.744;2022-07-18T05:53:48;100142.28;;;37.25;nan
8758;BME280;4415;42.152;24.744;2022-07-18T05:56:14;100123.31;;;36.91;nan
8758;BME280;4415;42.152;24.744;2022-07-18T05:58:40;100142.13;;;36.81;nan
8758;BME280;4415;42.152;24.744;2022-07-18T06:01:06;100152.72;;;36.77;nan
8758;BME280;4415;42.152;24.744;2022-07-18T06:03:32;100131.75;;;37.03;nan
8758;BME280;4415;42.152;24.744;2022-07-18T06:05:57;100132.66;;;37.00;nan
8758;BME280;4415;42.152;24.744;2022-07-18T06:08:22;100121.94;;;37.42;nan
8758;BME280;4415;42.152;24.744;2022-07-18T06:10:48;100122.59;;;37.12;nan
8758;BME280;4415;42.152;24.744;2022-07-18T06:13:13;100113.22;;;37.71;nan
8758;BME280;4415;42.152;24.744;2022-07-18T06:15:39;100129.06;;;38.21;nan
8758;BME280;4415;42.152;24.744;2022-07-18T06:18:04;100117.28;;;39.11;nan
8758;BME280;4415;42.152;24.744;2022-07-18T06:20:30;100122.19;;;39.65;nan
8758;BME280;4415;42.152;24.744;2022-07-18T06:22:55;100117.19;;;40.20;nan
8758;BME280;4415;42.152;24.744;2022-07-18T06:25:20;100118.13;;;40.83;nan
8758;BME280;4415;42.152;24.744;2022-07-18T06:27:46;100107.34;;;41.20;nan
8758;BME280;4415;42.152;24.744;2022-07-18T06:30:12;100104.34;;;41.76;nan
8758;BME280;4415;42.152;24.744;2022-07-18T06:32:38;100120.41;;;42.23;nan
8758;BME280;4415;42.152;24.744;2022-07-18T06:35:04;100103.75;;;41.72;nan
8758;BME280;4415;42.152;24.744;2022-07-18T06:37:30;100107.44;;;42.37;nan
8758;BME280;4415;42.152;24.744;2022-07-18T06:39:55;100118.44;;;42.99;nan
8758;BME280;4415;42.152;24.744;2022-07-18T06:42:21;100112.97;;;41.96;nan
8758;BME280;4415;42.152;24.744;2022-07-18T06:44:46;100108.63;;;42.30;nan
8758;BME280;4415;42.152;24.744;2022-07-18T06:47:12;100119.94;;;43.34;nan
8758;BME280;4415;42.152;24.744;2022-07-18T06:49:37;100133.06;;;43.12;nan
8758;BME280;4415;42.152;24.744;2022-07-18T06:52:03;100123.59;;;44.12;nan
8758;BME280;4415;42.152;24.744;2022-07-18T06:54:28;100130.16;;;43.98;nan
8758;BME280;4415;42.152;24.744;2022-07-18T06:56:55;100142.31;;;44.24;nan
8758;BME280;4415;42.152;24.744;2022-07-18T06:59:21;100116.53;;;44.81;nan
8758;BME280;4415;42.152;24.744;2022-07-18T07:01:46;100128.41;;;44.69;nan
8758;BME280;4415;42.152;24.744;2022-07-18T07:04:12;100114.66;;;45.21;nan
8758;BME280;4415;42.152;24.744;2022-07-18T07:06:37;100118.75;;;46.17;nan
8758;BME280;4415;42.152;24.744;2022-07-18T07:09:04;100124.72;;;46.08;nan
8758;BME280;4415;42.152;24.744;2022-07-18T07:11:30;100121.88;;;46.25;nan
8758;BME280;4415;42.152;24.744;2022-07-18T07:13:55;100135.19;;;45.30;nan
8758;BME280;4415;42.152;24.744;2022-07-18T07:16:21;100134.59;;;44.67;nan
8758;BME280;4415;42.152;24.744;2022-07-18T07:18:47;100128.47;;;44.85;nan
8758;BME280;4415;42.152;24.744;2022-07-18T07:21:13;100136.28;;;43.39;nan
8758;BME280;4415;42.152;24.744;2022-07-18T07:23:39;100131.72;;;42.08;nan
8758;BME280;4415;42.152;24.744;2022-07-18T07:26:06;100124.50;;;41.78;nan
8758;BME280;4415;42.152;24.744;2022-07-18T07:28:32;100133.06;;;41.54;nan
8758;BME280;4415;42.152;24.744;2022-07-18T07:30:58;100124.06;;;41.41;nan
8758;BME280;4415;42.152;24.744;2022-07-18T07:33:23;100106.13;;;39.80;nan
8758;BME280;4415;42.152;24.744;2022-07-18T07:35:49;100124.81;;;39.23;nan
8758;BME280;4415;42.152;24.744;2022-07-18T07:38:15;100111.19;;;39.22;nan
8758;BME280;4415;42.152;24.744;2022-07-18T07:40:47;100129.34;;;40.03;nan
8758;BME280;4415;42.152;24.744;2022-07-18T07:43:15;100109.03;;;40.04;nan
8758;BME280;4415;42.152;24.744;2022-07-18T07:45:41;100101.03;;;40.03;nan
8758;BME280;4415;42.152;24.744;2022-07-18T07:48:07;100124.19;;;39.74;nan
8758;BME280;4415;42.152;24.744;2022-07-18T07:50:33;100130.53;;;37.60;nan
8758;BME280;4415;42.152;24.744;2022-07-18T07:52:59;100129.25;;;37.05;nan
8758;BME280;4415;42.152;24.744;2022-07-18T07:55:25;100105.38;;;38.28;nan
8758;BME280;4415;42.152;24.744;2022-07-18T07:57:51;100117.88;;;38.88;nan
8758;BME280;4415;42.152;24.744;2022-07-18T08:00:16;100145.84;;;39.04;nan
8758;BME280;4415;42.152;24.744;2022-07-18T08:02:58;100112.53;;;38.41;nan
8758;BME280;4415;42.152;24.744;2022-07-18T08:05:24;100121.00;;;38.41;nan
8758;BME280;4415;42.152;24.744;2022-07-18T08:07:50;100121.44;;;36.75;nan
8758;BME280;4415;42.152;24.744;2022-07-18T08:10:16;100118.53;;;36.00;nan
8758;BME280;4415;42.152;24.744;2022-07-18T08:12:42;100124.34;;;37.53;nan
8758;BME280;4415;42.152;24.744;2022-07-18T08:15:08;100135.16;;;36.73;nan
8758;BME280;4415;42.152;24.744;2022-07-18T08:17:34;100122.44;;;38.46;nan
8758;BME280;4415;42.152;24.744;2022-07-18T08:20:00;100114.97;;;38.70;nan
8758;BME280;4415;42.152;24.744;2022-07-18T08:22:25;100116.88;;;38.02;nan
8758;BME280;4415;42.152;24.744;2022-07-18T08:24:51;100128.84;;;36.19;nan
8758;BME280;4415;42.152;24.744;2022-07-18T08:27:16;100134.25;;;36.26;nan
8758;BME280;4415;42.152;24.744;2022-07-18T08:29:42;100113.75;;;36.13;nan
8758;BME280;4415;42.152;24.744;2022-07-18T08:32:07;100127.88;;;35.97;nan
8758;BME280;4415;42.152;24.744;2022-07-18T08:34:33;100132.66;;;37.00;nan
8758;BME280;4415;42.152;24.744;2022-07-18T08:36:59;100119.78;;;36.99;nan
8758;BME280;4415;42.152;24.744;2022-07-18T08:39:24;100116.88;;;36.90;nan
8758;BME280;4415;42.152;24.744;2022-07-18T08:41:50;100120.91;;;34.34;nan
8758;BME280;4415;42.152;24.744;2022-07-18T08:44:16;100133.50;;;35.97;nan
8758;BME280;4415;42.152;24.744;2022-07-18T08:46:44;100108.22;;;36.85;nan
8758;BME280;4415;42.152;24.744;2022-07-18T08:49:14;100120.75;;;37.18;nan
8758;BME280;4415;42.152;24.744;2022-07-18T08:51:39;100121.06;;;38.59;nan
8758;BME280;4415;42.152;24.744;2022-07-18T08:54:06;100119.22;;;37.82;nan
8758;BME280;4415;42.152;24.744;2022-07-18T08:56:31;100124.63;;;37.46;nan
8758;BME280;4415;42.152;24.744;2022-07-18T08:58:57;100119.38;;;37.57;nan
8758;BME280;4415;42.152;24.744;2022-07-18T09:01:24;100121.22;;;37.94;nan
8758;BME280;4415;42.152;24.744;2022-07-18T09:03:52;100127.47;;;36.86;nan
8758;BME280;4415;42.152;24.744;2022-07-18T09:06:50;100128.56;;;37.48;nan
8758;BME280;4415;42.152;24.744;2022-07-18T09:09:18;100103.47;;;37.07;nan
8758;BME280;4415;42.152;24.744;2022-07-18T09:11:56;100110.03;;;36.28;nan
8758;BME280;4415;42.152;24.744;2022-07-18T09:14:35;100111.19;;;36.43;nan
8758;BME280;4415;42.152;24.744;2022-07-18T09:19:30;100129.31;;;36.55;nan
8758;BME280;4415;42.152;24.744;2022-07-18T09:22:19;100118.34;;;36.95;nan
8758;BME280;4415;42.152;24.744;2022-07-18T09:25:07;100123.28;;;37.38;nan
8758;BME280;4415;42.152;24.744;2022-07-18T09:32:49;100135.81;;;35.44;nan
8758;BME280;4415;42.152;24.744;2022-07-18T09:35:26;100128.31;;;36.62;nan
8758;BME280;4415;42.152;24.744;2022-07-18T09:38:06;100129.09;;;34.61;nan
8758;BME280;4415;42.152;24.744;2022-07-18T09:40:44;100110.03;;;35.74;nan
8758;BME280;4415;42.152;24.744;2022-07-18T09:43:14;100121.69;;;35.89;nan
8758;BME280;4415;42.152;24.744;2022-07-18T09:45:44;100133.59;;;34.39;nan
8758;BME280;4415;42.152;24.744;2022-07-18T09:48:15;100119.22;;;34.72;nan
8758;BME280;4415;42.152;24.744;2022-07-18T09:50:44;100110.75;;;35.50;nan
8758;BME280;4415;42.152;24.744;2022-07-18T09:53:16;100124.25;;;35.26;nan
8758;BME280;4415;42.152;24.744;2022-07-18T09:55:55;100121.28;;;35.74;nan
8758;BME280;4415;42.152;24.744;2022-07-18T09:58:26;100108.66;;;35.66;nan
8758;BME280;4415;42.152;24.744;2022-07-18T10:00:54;100123.22;;;34.71;nan
8758;BME280;4415;42.152;24.744;2022-07-18T10:03:21;100096.75;;;35.62;nan
8758;BME280;4415;42.152;24.744;2022-07-18T10:05:48;100083.34;;;35.54;nan
8758;BME280;4415;42.152;24.744;2022-07-18T10:08:16;100105.66;;;36.40;nan
8758;BME280;4415;42.152;24.744;2022-07-18T10:10:44;100094.91;;;35.84;nan
8758;BME280;4415;42.152;24.744;2022-07-18T10:13:10;100105.88;;;36.08;nan
8758;BME280;4415;42.152;24.744;2022-07-18T10:15:38;100096.03;;;34.68;nan
8758;BME280;4415;42.152;24.744;2022-07-18T10:18:06;100071.97;;;34.35;nan
8758;BME280;4415;42.152;24.744;2022-07-18T10:20:36;100092.84;;;35.15;nan
8758;BME280;4415;42.152;24.744;2022-07-18T10:23:07;100093.38;;;34.45;nan
8758;BME280;4415;42.152;24.744;2022-07-18T10:25:34;100045.22;;;33.39;nan
8758;BME280;4415;42.152;24.744;2022-07-18T10:28:05;100056.94;;;33.34;nan
8758;BME280;4415;42.152;24.744;2022-07-18T10:30:39;100073.47;;;33.68;nan
8758;BME280;4415;42.152;24.744;2022-07-18T10:33:38;100076.09;;;33.95;nan
8758;BME280;4415;42.152;24.744;2022-07-18T10:36:09;100061.72;;;34.45;nan
8758;BME280;4415;42.152;24.744;2022-07-18T10:38:35;100069.75;;;34.62;nan
8758;BME280;4415;42.152;24.744;2022-07-18T10:41:13;100065.31;;;34.45;nan
8758;BME280;4415;42.152;24.744;2022-07-18T10:43:41;100067.63;;;33.39;nan
8758;BME280;4415;42.152;24.744;2022-07-18T10:46:08;100078.06;;;33.39;nan
8758;BME280;4415;42.152;24.744;2022-07-18T10:51:08;100074.75;;;33.44;nan
8758;BME280;4415;42.152;24.744;2022-07-18T10:56:18;100073.56;;;34.68;nan
8758;BME280;4415;42.152;24.744;2022-07-18T10:58:44;100059.69;;;34.13;nan
8758;BME280;4415;42.152;24.744;2022-07-18T11:01:17;100055.66;;;34.79;nan
8758;BME280;4415;42.152;24.744;2022-07-18T11:03:43;100040.72;;;35.26;nan
8758;BME280;4415;42.152;24.744;2022-07-18T11:06:09;100052.00;;;34.33;nan
8758;BME280;4415;42.152;24.744;2022-07-18T11:08:35;100052.25;;;33.87;nan
8758;BME280;4415;42.152;24.744;2022-07-18T11:11:04;100040.25;;;33.47;nan
8758;BME280;4415;42.152;24.744;2022-07-18T11:13:31;100040.78;;;33.62;nan
8758;BME280;4415;42.152;24.744;2022-07-18T11:18:26;100059.19;;;32.77;nan
8758;BME280;4415;42.152;24.744;2022-07-18T11:20:52;100044.28;;;33.03;nan
8758;BME280;4415;42.152;24.744;2022-07-18T11:23:19;100030.06;;;33.37;nan
8758;BME280;4415;42.152;24.744;2022-07-18T11:25:47;100026.19;;;33.70;nan
8758;BME280;4415;42.152;24.744;2022-07-18T11:28:13;100035.66;;;34.44;nan
8758;BME280;4415;42.152;24.744;2022-07-18T11:30:39;100035.34;;;33.90;nan
8758;BME280;4415;42.152;24.744;2022-07-18T11:33:05;100032.81;;;33.21;nan
8758;BME280;4415;42.152;24.744;2022-07-18T11:35:31;100035.53;;;33.01;nan
8758;BME280;4415;42.152;24.744;2022-07-18T11:37:56;100043.22;;;32.74;nan
8758;BME280;4415;42.152;24.744;2022-07-18T11:40:22;100032.56;;;32.42;nan
8758;BME280;4415;42.152;24.744;2022-07-18T11:42:48;100036.50;;;32.45;nan
8758;BME280;4415;42.152;24.744;2022-07-18T11:45:16;100033.31;;;32.46;nan
8758;BME280;4415;42.152;24.744;2022-07-18T11:47:47;100012.22;;;32.65;nan
8758;BME280;4415;42.152;24.744;2022-07-18T11:50:14;100022.09;;;33.16;nan
8758;BME280;4415;42.152;24.744;2022-07-18T11:52:40;100003.84;;;33.67;nan
8758;BME280;4415;42.152;24.744;2022-07-18T11:55:06;100020.84;;;32.27;nan
8758;BME280;4415;42.152;24.744;2022-07-18T11:57:32;100006.03;;;32.54;nan
8758;BME280;4415;42.152;24.744;2022-07-18T12:00:00;100005.28;;;33.35;nan
8758;BME280;4415;42.152;24.744;2022-07-18T12:05:37;100010.63;;;32.17;nan
8758;BME280;4415;42.152;24.744;2022-07-18T12:08:29;99991.78;;;32.68;nan
8758;BME280;4415;42.152;24.744;2022-07-18T12:16:08;100002.41;;;32.76;nan
8758;BME280;4415;42.152;24.744;2022-07-18T12:18:33;99973.03;;;32.18;nan
8758;BME280;4415;42.152;24.744;2022-07-18T12:21:08;99999.31;;;32.24;nan
8758;BME280;4415;42.152;24.744;2022-07-18T12:23:34;99978.88;;;32.27;nan
8758;BME280;4415;42.152;24.744;2022-07-18T12:26:00;99967.16;;;32.36;nan
8758;BME280;4415;42.152;24.744;2022-07-18T12:28:28;99988.84;;;32.28;nan
8758;BME280;4415;42.152;24.744;2022-07-18T12:30:54;99983.81;;;32.43;nan
8758;BME280;4415;42.152;24.744;2022-07-18T12:33:20;99990.72;;;31.55;nan
8758;BME280;4415;42.152;24.744;2022-07-18T12:35:55;99971.75;;;32.00;nan
8758;BME280;4415;42.152;24.744;2022-07-18T12:38:21;99976.75;;;32.35;nan
8758;BME280;4415;42.152;24.744;2022-07-18T12:40:55;99965.50;;;32.38;nan
8758;BME280;4415;42.152;24.744;2022-07-18T12:45:52;99962.81;;;32.97;nan
8758;BME280;4415;42.152;24.744;2022-07-18T12:48:18;99960.31;;;33.03;nan
8758;BME280;4415;42.152;24.744;2022-07-18T12:50:44;99944.50;;;32.93;nan
8758;BME280;4415;42.152;24.744;2022-07-18T12:53:10;99943.72;;;32.50;nan
8758;BME280;4415;42.152;24.744;2022-07-18T12:55:36;99965.41;;;31.96;nan
8758;BME280;4415;42.152;24.744;2022-07-18T12:58:04;99959.91;;;31.89;nan
8758;BME280;4415;42.152;24.744;2022-07-18T13:00:30;99965.44;;;31.92;nan
8758;BME280;4415;42.152;24.744;2022-07-18T13:02:58;99957.00;;;32.22;nan
8758;BME280;4415;42.152;24.744;2022-07-18T13:05:25;99948.50;;;32.53;nan
8758;BME280;4415;42.152;24.744;2022-07-18T13:07:51;99948.84;;;32.31;nan
8758;BME280;4415;42.152;24.744;2022-07-18T13:10:16;99941.31;;;32.52;nan
8758;BME280;4415;42.152;24.744;2022-07-18T13:12:42;99938.75;;;32.61;nan
8758;BME280;4415;42.152;24.744;2022-07-18T13:15:08;99956.31;;;32.61;nan
8758;BME280;4415;42.152;24.744;2022-07-18T13:17:33;99957.81;;;31.69;nan
8758;BME280;4415;42.152;24.744;2022-07-18T13:19:58;99941.41;;;31.98;nan
8758;BME280;4415;42.152;24.744;2022-07-18T13:22:24;99941.69;;;32.30;nan
8758;BME280;4415;42.152;24.744;2022-07-18T13:24:49;99928.41;;;32.58;nan
8758;BME280;4415;42.152;24.744;2022-07-18T13:27:15;99938.09;;;32.30;nan
8758;BME280;4415;42.152;24.744;2022-07-18T13:29:40;99940.03;;;32.33;nan
8758;BME280;4415;42.152;24.744;2022-07-18T13:32:06;99943.72;;;32.50;nan
8758;BME280;4415;42.152;24.744;2022-07-18T13:34:33;99939.16;;;32.13;nan
8758;BME280;4415;42.152;24.744;2022-07-18T13:36:59;99936.50;;;32.06;nan
8758;BME280;4415;42.152;24.744;2022-07-18T13:39:24;99934.03;;;32.11;nan
8758;BME280;4415;42.152;24.744;2022-07-18T13:41:50;99936.88;;;31.81;nan
8758;BME280;4415;42.152;24.744;2022-07-18T13:44:16;99952.91;;;31.77;nan
8758;BME280;4415;42.152;24.744;2022-07-18T13:46:41;99942.66;;;31.06;nan
8758;BME280;4415;42.152;24.744;2022-07-18T13:49:09;99943.44;;;31.10;nan
8758;BME280;4415;42.152;24.744;2022-07-18T13:51:36;99925.56;;;31.35;nan
8758;BME280;4415;42.152;24.744;2022-07-18T13:54:06;99939.59;;;30.97;nan